createdAt,value
2018-09-23T00:06:05.711Z,90.10
2018-09-23T00:08:33.955Z,90.40
2018-09-23T00:11:02.209Z,90.70
2018-09-23T00:13:30.428Z,90.30
2018-09-23T00:15:58.746Z,90.40
2018-09-23T00:18:27.039Z,90.50
2018-09-23T00:20:55.412Z,90.50
2018-09-23T00:23:23.615Z,91.30
2018-09-23T00:25:51.811Z,90.80
2018-09-23T00:28:20.128Z,90.70
2018-09-23T00:30:48.440Z,90.10
2018-09-23T00:33:16.747Z,90.30
2018-09-23T00:35:45.036Z,90.60
2018-09-23T00:38:13.288Z,90.70
2018-09-23T00:40:41.563Z,90.50
2018-09-23T00:43:09.842Z,90.90
2018-09-23T00:45:38.182Z,90.00
2018-09-23T00:48:06.431Z,89.30
2018-09-23T00:50:34.672Z,89.80
2018-09-23T00:53:02.936Z,90.20
2018-09-23T00:55:31.224Z,90.10
2018-09-23T00:57:59.408Z,90.10
2018-09-23T01:00:27.635Z,91.60
2018-09-23T01:02:57.034Z,90.20
2018-09-23T01:05:25.255Z,89.70
2018-09-23T01:07:53.532Z,90.40
2018-09-23T01:10:21.856Z,90.90
2018-09-23T01:12:50.059Z,91.00
2018-09-23T01:15:20.332Z,91.40
2018-09-23T01:17:48.579Z,91.80
2018-09-23T01:20:16.853Z,91.00
2018-09-23T01:22:45.149Z,91.50
2018-09-23T01:25:13.410Z,91.40
2018-09-23T01:27:41.776Z,91.70
2018-09-23T01:30:10.104Z,91.50
2018-09-23T01:32:38.315Z,91.90
2018-09-23T01:35:06.612Z,91.70
2018-09-23T01:37:34.910Z,91.70
2018-09-23T01:40:03.173Z,91.70
2018-09-23T01:42:31.426Z,91.70
2018-09-23T01:44:59.779Z,92.20
2018-09-23T01:47:27.979Z,93.70
2018-09-23T01:49:56.247Z,92.50
2018-09-23T02:02:16.539Z,93.20
2018-09-23T02:04:44.808Z,93.30
2018-09-23T02:07:13.079Z,93.20
2018-09-23T02:09:41.340Z,93.50
2018-09-23T02:12:09.536Z,93.60
2018-09-23T02:14:37.824Z,93.60
2018-09-23T02:17:06.079Z,93.60
2018-09-23T02:19:35.415Z,93.70
2018-09-23T02:22:03.688Z,93.50
2018-09-23T02:24:31.917Z,93.20
2018-09-23T02:27:00.283Z,93.30
2018-09-23T02:29:28.566Z,92.80
2018-09-23T02:31:56.775Z,93.10
2018-09-23T02:34:25.462Z,93.00
2018-09-23T02:36:53.718Z,92.70
2018-09-23T02:39:21.991Z,93.00
2018-09-23T02:41:50.291Z,93.20
2018-09-23T02:44:18.627Z,93.20
2018-09-23T02:46:46.924Z,92.90
2018-09-23T02:49:16.207Z,92.90
2018-09-23T02:51:44.494Z,93.10
2018-09-23T02:54:12.719Z,93.10
2018-09-23T02:56:41.024Z,93.50
2018-09-23T02:59:09.323Z,93.40
2018-09-23T03:01:37.596Z,93.90
2018-09-23T03:04:05.816Z,94.10
2018-09-23T03:06:34.051Z,94.10
2018-09-23T03:09:02.399Z,94.00
2018-09-23T03:11:30.707Z,93.90
2018-09-23T03:14:00.032Z,94.10
2018-09-23T03:16:28.324Z,94.30
2018-09-23T03:18:56.563Z,94.60
2018-09-23T03:21:24.827Z,94.80
2018-09-23T03:23:53.181Z,94.60
2018-09-23T03:26:21.416Z,94.30
2018-09-23T03:28:49.687Z,94.60
2018-09-23T03:31:17.940Z,95.00
2018-09-23T03:33:46.256Z,94.70
2018-09-23T03:36:14.500Z,94.40
2018-09-23T03:38:42.883Z,94.60
2018-09-23T03:41:11.184Z,94.40
2018-09-23T03:43:39.439Z,94.10
2018-09-23T03:46:07.651Z,94.40
2018-09-23T03:48:35.896Z,94.00
2018-09-23T03:51:04.139Z,94.20
2018-09-23T03:53:32.347Z,94.20
2018-09-23T03:56:01.690Z,94.00
2018-09-23T04:05:53.904Z,94.00
2018-09-23T04:08:22.244Z,94.30
2018-09-23T04:10:50.591Z,94.40
2018-09-23T04:13:18.828Z,94.40
2018-09-23T04:15:47.096Z,94.50
2018-09-23T04:18:15.440Z,94.10
2018-09-23T04:20:44.664Z,94.00
2018-09-23T04:23:12.992Z,94.30
2018-09-23T04:25:41.192Z,94.30
2018-09-23T04:28:09.432Z,94.20
2018-09-23T04:30:37.612Z,94.20
2018-09-23T04:33:05.851Z,94.30
2018-09-23T04:35:34.080Z,94.40
2018-09-23T04:38:02.372Z,94.20
2018-09-23T04:40:30.608Z,93.70
2018-09-23T04:42:58.871Z,94.00
2018-09-23T04:45:27.155Z,94.00
2018-09-23T04:47:55.416Z,93.70
2018-09-23T04:50:23.680Z,93.50
2018-09-23T04:52:51.942Z,93.30
2018-09-23T04:55:20.250Z,93.40
2018-09-23T04:57:48.463Z,93.40
2018-09-23T05:00:16.688Z,93.50
2018-09-23T05:07:40.858Z,93.50
2018-09-23T05:10:09.084Z,93.60
2018-09-23T05:12:37.279Z,93.80
2018-09-23T05:15:05.480Z,94.10
2018-09-23T05:17:33.663Z,93.80
2018-09-23T05:20:01.889Z,93.70
2018-09-23T05:22:30.130Z,94.10
2018-09-23T05:24:58.315Z,94.00
2018-09-23T05:27:26.535Z,93.80
2018-09-23T05:29:54.819Z,93.50
2018-09-23T05:32:23.039Z,93.40
2018-09-23T05:34:51.311Z,93.90
2018-09-23T05:37:19.535Z,93.80
2018-09-23T05:39:47.791Z,94.20
2018-09-23T05:42:17.743Z,93.70
2018-09-23T05:44:47.992Z,93.40
2018-09-23T05:47:27.260Z,93.30
2018-09-23T05:49:56.704Z,93.10
2018-09-23T05:52:24.970Z,93.20
2018-09-23T05:54:53.206Z,94.30
2018-09-23T06:02:17.608Z,93.40
2018-09-23T06:04:46.699Z,93.50
2018-09-23T06:07:15.013Z,93.60
2018-09-23T06:09:43.669Z,93.80
2018-09-23T06:12:11.871Z,93.80
2018-09-23T06:14:40.151Z,93.50
2018-09-23T06:17:09.028Z,93.50
2018-09-23T06:22:07.130Z,93.70
2018-09-23T06:29:46.481Z,93.80
2018-09-23T06:32:16.695Z,94.10
2018-09-23T06:34:44.996Z,94.10
2018-09-23T06:37:13.320Z,94.10
2018-09-23T06:39:41.796Z,94.40
2018-09-23T06:42:10.253Z,94.20
2018-09-23T06:44:41.192Z,94.40
2018-09-23T06:47:14.545Z,93.90
2018-09-23T06:49:44.214Z,94.00
2018-09-23T06:52:12.768Z,94.00
2018-09-23T06:54:41.078Z,94.10
2018-09-23T06:59:38.370Z,99.90
2018-09-23T07:07:07.431Z,94.30
2018-09-23T07:09:35.806Z,94.50
2018-09-23T07:12:04.224Z,94.30
2018-09-23T07:14:32.479Z,94.40
2018-09-23T07:17:00.797Z,94.60
2018-09-23T07:19:29.926Z,94.40
2018-09-23T07:21:58.210Z,94.60
2018-09-23T07:24:26.485Z,94.70
2018-09-23T07:26:54.810Z,94.70
2018-09-23T07:29:24.934Z,95.00
2018-09-23T07:31:55.644Z,94.80
2018-09-23T07:34:26.059Z,94.70
2018-09-23T07:36:55.838Z,95.10
2018-09-23T07:39:24.043Z,95.00
2018-09-23T07:41:52.439Z,95.40
2018-09-23T07:44:23.072Z,95.10
2018-09-23T07:46:55.829Z,95.30
2018-09-23T07:49:28.392Z,94.60
2018-09-23T07:51:56.691Z,94.40
2018-09-23T07:54:26.219Z,94.40
2018-09-23T07:59:26.010Z,97.10
2018-09-23T08:04:31.907Z,94.60
2018-09-23T08:07:12.226Z,94.30
2018-09-23T08:09:42.259Z,94.50
2018-09-23T08:15:41.755Z,95.00
2018-09-23T08:18:10.020Z,95.60
2018-09-23T08:20:39.913Z,95.40
2018-09-23T08:23:08.367Z,95.10
2018-09-23T08:30:45.252Z,95.00
2018-09-23T08:33:14.545Z,94.80
2018-09-23T08:38:11.789Z,94.60
2018-09-23T08:40:40.087Z,94.80
2018-09-23T08:43:08.376Z,94.90
2018-09-23T08:45:37.055Z,95.00
2018-09-23T08:48:06.405Z,95.30
2018-09-23T08:50:35.309Z,95.50
2018-09-23T08:53:04.648Z,95.40
2018-09-23T08:55:33.011Z,95.80
2018-09-23T08:58:02.364Z,95.10
2018-09-23T09:00:31.752Z,94.80
2018-09-23T09:03:03.133Z,94.50
2018-09-23T09:05:37.945Z,94.60
2018-09-23T09:08:08.515Z,94.50
2018-09-23T09:10:36.871Z,93.90
2018-09-23T09:15:33.144Z,93.80
2018-09-23T09:18:01.401Z,93.70
2018-09-23T09:20:29.644Z,93.60
2018-09-23T09:22:57.971Z,93.50
2018-09-23T09:27:54.320Z,93.70
2018-09-23T09:30:22.613Z,94.60
2018-09-23T09:32:50.859Z,94.20
2018-09-23T09:35:19.142Z,94.00
2018-09-23T09:37:47.379Z,93.50
2018-09-23T09:40:15.728Z,94.00
2018-09-23T09:42:43.975Z,94.40
2018-09-23T09:45:12.256Z,94.60
2018-09-23T09:47:41.458Z,94.40
2018-09-23T09:50:09.656Z,94.00
2018-09-23T09:52:37.917Z,94.00
2018-09-23T09:55:06.166Z,94.20
2018-09-23T09:57:34.444Z,94.70
2018-09-23T10:00:03.649Z,94.60
2018-09-23T10:02:31.950Z,94.50
2018-09-23T10:05:01.232Z,94.30
2018-09-23T10:08:32.824Z,95.10
2018-09-23T10:11:01.066Z,95.80
2018-09-23T10:15:57.330Z,95.90
2018-09-23T10:18:25.522Z,94.70
2018-09-23T10:20:53.716Z,94.90
2018-09-23T10:23:22.008Z,95.30
2018-09-23T10:25:50.204Z,94.50
2018-09-23T10:28:18.476Z,93.80
2018-09-23T10:30:46.759Z,94.80
2018-09-23T10:33:15.039Z,93.80
2018-09-23T10:35:43.303Z,90.50
2018-09-23T10:38:11.576Z,91.00
2018-09-23T10:40:39.786Z,90.80
2018-09-23T10:45:36.119Z,84.00
2018-09-23T10:48:04.380Z,87.60
2018-09-23T10:50:32.632Z,82.30
2018-09-23T10:53:01.073Z,83.80
2018-09-23T10:55:29.334Z,80.00
2018-09-23T10:57:57.625Z,80.70
2018-09-23T11:00:25.850Z,81.80
2018-09-23T11:02:54.203Z,79.90
2018-09-23T11:05:22.416Z,80.90
2018-09-23T11:07:50.789Z,80.80
2018-09-23T11:10:19.066Z,75.20
2018-09-23T11:12:47.347Z,73.10
2018-09-23T11:15:15.624Z,75.30
2018-09-23T11:22:39.696Z,73.70
2018-09-23T11:25:08.008Z,76.90
2018-09-23T11:27:36.276Z,73.60
2018-09-23T11:30:04.616Z,70.40
2018-09-23T11:32:32.843Z,70.30
2018-09-23T11:35:01.099Z,70.70
2018-09-23T11:37:29.396Z,73.80
2018-09-23T11:39:57.647Z,72.40
2018-09-23T11:42:25.883Z,76.30
2018-09-23T11:44:54.136Z,75.30
2018-09-23T11:47:22.400Z,75.20
2018-09-23T11:49:50.658Z,75.20
2018-09-23T11:52:19.031Z,75.30
2018-09-23T11:54:47.381Z,75.30
2018-09-23T11:57:15.595Z,76.20
2018-09-23T11:59:43.875Z,75.50
2018-09-23T12:02:12.187Z,74.20
2018-09-23T12:04:40.322Z,74.10
2018-09-23T12:07:08.576Z,72.50
2018-09-23T12:09:36.865Z,73.60
2018-09-23T12:12:05.168Z,73.80
2018-09-23T12:14:33.443Z,75.50
2018-09-23T12:17:01.698Z,71.80
2018-09-23T12:19:29.983Z,69.40
2018-09-23T12:21:58.247Z,70.00
2018-09-23T12:24:26.532Z,71.30
2018-09-23T12:26:54.791Z,70.40
2018-09-23T12:29:23.089Z,72.50
2018-09-23T12:31:51.349Z,72.30
2018-09-23T12:34:19.636Z,72.80
2018-09-23T12:36:47.888Z,74.50
2018-09-23T12:39:16.180Z,72.90
2018-09-23T12:41:44.455Z,75.50
2018-09-23T12:44:12.759Z,73.90
2018-09-23T12:46:41.017Z,73.70
2018-09-23T12:49:09.290Z,75.40
2018-09-23T12:51:37.560Z,75.20
2018-09-23T12:54:05.770Z,74.90
2018-09-23T12:56:34.372Z,73.80
2018-09-23T12:59:02.583Z,68.70
2018-09-23T13:01:30.919Z,69.40
2018-09-23T13:03:59.170Z,72.10
2018-09-23T13:06:27.369Z,72.30
2018-09-23T13:08:55.593Z,71.40
2018-09-23T13:11:23.867Z,71.10
2018-09-23T13:13:52.124Z,70.70
2018-09-23T13:16:20.427Z,69.80
2018-09-23T13:18:48.762Z,69.20
2018-09-23T13:23:44.884Z,62.00
2018-09-23T13:26:13.109Z,59.60
2018-09-23T13:28:41.388Z,61.80
2018-09-23T13:31:09.659Z,58.90
2018-09-23T13:33:37.962Z,58.00
2018-09-23T13:38:34.288Z,59.00
2018-09-23T13:41:02.619Z,58.30
2018-09-23T13:43:30.826Z,57.80
2018-09-23T13:45:59.117Z,58.50
2018-09-23T13:48:28.283Z,58.10
2018-09-23T13:50:56.583Z,58.50
2018-09-23T13:53:24.878Z,58.30
2018-09-23T13:55:53.159Z,58.60
2018-09-23T13:58:21.416Z,59.10
2018-09-23T14:03:17.640Z,57.50
2018-09-23T14:05:45.968Z,58.10
2018-09-23T14:08:14.167Z,59.00
2018-09-23T14:10:42.379Z,60.40
2018-09-23T14:13:10.687Z,61.10
2018-09-23T14:15:39.055Z,61.80
2018-09-23T14:18:07.393Z,60.60
2018-09-23T14:20:35.723Z,60.30
2018-09-23T14:23:03.967Z,60.00
2018-09-23T14:25:32.231Z,60.00
2018-09-23T14:28:00.543Z,59.50
2018-09-23T14:30:29.208Z,59.80
2018-09-23T14:32:57.489Z,60.30
2018-09-23T14:35:25.771Z,58.60
2018-09-23T14:37:53.975Z,59.20
2018-09-23T14:40:22.199Z,58.20
2018-09-23T14:42:50.448Z,59.60
2018-09-23T14:45:18.646Z,58.10
2018-09-23T14:47:46.876Z,58.40
2018-09-23T14:50:15.099Z,57.70
2018-09-23T14:52:43.286Z,56.20
2018-09-23T14:55:11.626Z,57.40
2018-09-23T14:57:39.832Z,57.50
2018-09-23T15:00:08.112Z,57.80
2018-09-23T15:02:36.435Z,58.20
2018-09-23T15:05:04.651Z,57.50
2018-09-23T15:07:32.937Z,57.70
2018-09-23T15:10:01.241Z,58.60
2018-09-23T15:12:29.476Z,58.40
2018-09-23T15:14:57.756Z,59.00
2018-09-23T15:17:26.044Z,62.00
2018-09-23T15:19:54.248Z,58.70
2018-09-23T15:24:50.412Z,58.30
2018-09-23T15:27:18.607Z,57.90
2018-09-23T15:29:46.799Z,57.90
2018-09-23T15:32:15.084Z,59.00
2018-09-23T15:34:43.352Z,58.70
2018-09-23T15:37:11.544Z,58.80
2018-09-23T15:39:39.803Z,59.10
2018-09-23T15:42:08.149Z,59.80
2018-09-23T15:44:36.320Z,59.80
2018-09-23T15:47:04.511Z,60.10
2018-09-23T15:49:32.711Z,59.70
2018-09-23T15:52:00.994Z,59.70
2018-09-23T15:54:29.148Z,59.00
2018-09-23T15:56:57.331Z,59.60
2018-09-23T15:59:25.591Z,59.20
2018-09-23T16:01:53.783Z,58.70
2018-09-23T16:04:22.472Z,58.60
2018-09-23T16:06:50.995Z,58.40
2018-09-23T16:09:19.179Z,58.50
2018-09-23T16:11:47.379Z,58.10
2018-09-23T16:14:15.695Z,58.40
2018-09-23T16:16:43.876Z,58.50
2018-09-23T16:19:12.141Z,58.40
2018-09-23T16:26:36.499Z,59.00
2018-09-23T16:29:04.719Z,59.30
2018-09-23T16:31:33.015Z,59.40
2018-09-23T16:34:01.260Z,59.30
2018-09-23T16:36:29.547Z,60.00
2018-09-23T16:38:57.815Z,59.20
2018-09-23T16:41:26.097Z,59.60
2018-09-23T16:43:54.371Z,60.40
2018-09-23T16:46:22.647Z,60.20
2018-09-23T16:48:50.859Z,59.20
2018-09-23T16:53:47.559Z,59.30
2018-09-23T16:56:15.844Z,59.40
2018-09-23T16:58:44.113Z,59.40
2018-09-23T17:01:12.400Z,59.50
2018-09-23T17:03:40.663Z,59.60
2018-09-23T17:06:08.943Z,59.70
2018-09-23T17:08:37.207Z,59.80
2018-09-23T17:11:05.737Z,59.40
2018-09-23T17:13:33.963Z,59.60
2018-09-23T17:16:02.271Z,59.60
2018-09-23T17:20:58.503Z,59.70
2018-09-23T17:23:26.711Z,59.40
2018-09-23T17:25:54.942Z,59.30
2018-09-23T17:28:23.329Z,59.00
2018-09-23T17:30:51.509Z,59.00
2018-09-23T17:33:19.663Z,59.10
2018-09-23T17:38:15.922Z,59.10
2018-09-23T17:40:44.236Z,59.00
2018-09-23T17:43:12.379Z,59.30
2018-09-23T17:45:40.555Z,59.40
2018-09-23T17:48:08.775Z,58.80
2018-09-23T17:50:37.000Z,58.70
2018-09-23T17:55:33.246Z,58.80
2018-09-23T17:58:01.457Z,58.40
2018-09-23T18:00:29.683Z,58.20
2018-09-23T18:02:57.867Z,58.10
2018-09-23T18:05:26.051Z,58.40
2018-09-23T18:07:54.281Z,58.30
2018-09-23T18:10:22.491Z,58.10
2018-09-23T18:12:50.797Z,57.50
2018-09-23T18:15:19.033Z,57.60
2018-09-23T18:20:15.180Z,57.60
2018-09-23T18:22:43.562Z,57.70
2018-09-23T18:25:11.852Z,58.10
2018-09-23T18:30:08.082Z,58.40
2018-09-23T18:32:36.340Z,58.40
2018-09-23T18:35:04.631Z,58.60
2018-09-23T18:37:33.000Z,58.30
2018-09-23T18:40:01.140Z,58.60
2018-09-23T18:42:29.358Z,58.90
2018-09-23T18:44:57.536Z,59.00
2018-09-23T18:47:25.791Z,59.00
2018-09-23T18:54:55.429Z,58.80
2018-09-23T18:57:23.621Z,59.50
2018-09-23T18:59:51.911Z,59.00
2018-09-23T19:02:20.120Z,58.90
2018-09-23T19:04:48.367Z,58.70
2018-09-23T19:07:16.584Z,59.00
2018-09-23T19:09:44.804Z,58.90
2018-09-23T19:12:13.089Z,61.40
2018-09-23T19:14:41.355Z,62.30
2018-09-23T19:17:09.535Z,62.20
2018-09-23T19:20:13.486Z,62.10
2018-09-23T19:22:46.952Z,62.60
2018-09-23T19:25:15.204Z,61.80
2018-09-23T19:27:43.416Z,61.60
2018-09-23T19:30:11.612Z,62.40
2018-09-23T19:33:42.989Z,61.70
2018-09-23T19:36:11.279Z,61.50
2018-09-23T19:38:39.558Z,61.90
2018-09-23T19:41:07.841Z,61.70
2018-09-23T19:43:36.139Z,63.80
2018-09-23T19:46:04.751Z,61.80
2018-09-23T19:48:33.133Z,58.00
2018-09-23T19:51:01.335Z,58.40
2018-09-23T19:53:29.635Z,59.40
2018-09-23T19:55:57.907Z,67.90
2018-09-23T19:58:26.331Z,74.00
2018-09-23T20:00:54.839Z,78.00
2018-09-23T20:03:23.016Z,80.10
2018-09-23T20:05:51.304Z,81.60
2018-09-23T20:08:19.640Z,82.00
2018-09-23T20:10:47.845Z,82.60
2018-09-23T20:13:16.072Z,84.30
2018-09-23T20:15:44.487Z,84.30
2018-09-23T20:18:12.682Z,84.80
2018-09-23T20:25:38.361Z,93.90
2018-09-23T20:28:06.779Z,86.30
2018-09-23T20:30:35.493Z,88.10
2018-09-23T20:33:04.517Z,88.60
2018-09-23T20:35:33.159Z,89.40
2018-09-23T20:40:31.400Z,90.30
2018-09-23T20:43:00.083Z,91.00
2018-09-23T20:45:29.972Z,90.30
2018-09-23T20:47:58.359Z,90.20
2018-09-23T20:50:27.238Z,88.10
2018-09-23T20:52:55.790Z,86.60
2018-09-23T20:55:25.703Z,89.10
2018-09-23T20:57:58.273Z,89.60
2018-09-23T21:00:27.654Z,90.20
2018-09-23T21:05:24.088Z,90.10
2018-09-23T21:07:52.901Z,90.50
2018-09-23T21:12:50.736Z,90.70
2018-09-23T21:22:49.598Z,91.30
2018-09-23T21:25:19.394Z,91.80
2018-09-23T21:30:17.141Z,91.90
2018-09-23T21:32:46.198Z,91.30
2018-09-23T21:35:15.750Z,91.50
2018-09-23T21:37:47.389Z,91.60
2018-09-23T21:40:18.973Z,91.80
2018-09-23T21:42:48.479Z,91.80
2018-09-23T21:45:17.647Z,92.00
2018-09-23T21:47:46.580Z,92.00
2018-09-23T21:52:45.128Z,92.10
2018-09-23T21:55:14.139Z,92.20
2018-09-23T21:57:43.274Z,91.40
2018-09-23T22:02:45.846Z,91.40
2018-09-23T22:05:14.424Z,90.70
2018-09-23T22:07:43.826Z,90.20
2018-09-23T22:12:41.494Z,88.90
2018-09-23T22:15:16.461Z,87.60
2018-09-23T22:17:45.457Z,88.50
2018-09-23T22:20:15.166Z,88.80
2018-09-23T22:22:44.037Z,89.30
2018-09-23T22:25:12.997Z,90.60
2018-09-23T22:27:42.075Z,91.00
2018-09-23T22:30:11.612Z,90.70
2018-09-23T22:32:42.057Z,90.60
2018-09-23T22:35:11.173Z,90.00
2018-09-23T22:37:40.122Z,89.20
2018-09-23T22:40:10.559Z,89.60
2018-09-23T22:45:09.125Z,89.70
2018-09-23T22:47:38.615Z,90.00
2018-09-23T22:50:12.339Z,90.10
2018-09-23T22:57:54.864Z,90.40
2018-09-23T23:02:52.552Z,88.30
2018-09-23T23:05:21.602Z,90.10
2018-09-23T23:07:50.677Z,89.40
2018-09-23T23:10:19.366Z,91.10
2018-09-23T23:12:48.052Z,90.50
2018-09-23T23:17:47.194Z,90.30
2018-09-23T23:20:15.956Z,91.20
2018-09-23T23:22:44.305Z,91.10
2018-09-23T23:25:12.558Z,91.00
2018-09-23T23:27:41.211Z,91.00
2018-09-23T23:30:09.611Z,90.50
2018-09-23T23:32:37.945Z,90.80
2018-09-23T23:35:06.385Z,90.70
2018-09-23T23:37:34.929Z,88.40
2018-09-23T23:40:03.135Z,88.10
2018-09-23T23:42:31.503Z,87.40
2018-09-23T23:45:00.017Z,89.40
2018-09-23T23:47:28.477Z,90.00
2018-09-23T23:49:56.938Z,89.80
2018-09-23T23:52:25.321Z,89.30
2018-09-23T23:54:53.804Z,88.40
2018-09-23T23:57:22.246Z,89.00
2018-09-23T23:59:50.542Z,87.60
